Ardmore, Maryland
Current Conditions -  °F | °C
As of 12:15 AM on Saturday 01 Nov 2014 (Local Time) from KCGS Reporting Station
Broken Clouds Broken Clouds  
Wind Chill: 45°   Ceiling: 5500
Heat Index: 45°   Visibility: 10mi
Dew Point: 41°   Wind: 0mph
Humidity: 87%   Direction: NA
Pressure: 29.83"   Gusts: NA
Location:  38.9183°N, 76.8721°W
Report Text: KCGS 010415Z AUTO 00000KT 10SM BKN055 07/05 A2983 RMK AO1
Loading
Personal Weather Stations






























Interactive Weather Map
Tropical Storm Tracking
New forecast layout! Learn more

10-Day Weather Forecast

Advertisements
Track Severe Weather on mobile